Time;durP1;ratioP1;P1;durP2;ratioP2;P2;SDS_P1;SDS_P2;PMS_P1;PMS_P2;Temp;Humidity;BMP_temperature;BMP_pressure;BME280_temperature;BME280_humidity;BME280_pressure;Samples;Min_cycle;Max_cycle;Signal;HPM_P1;HPM_P2
2023/06/08 00:01:52;;;;;;;16.93;15.20;;;20.70;1.00;;;;;;5044776;28;20212;-55
2023/06/08 00:04:19;;;;;;;19.30;16.10;;;20.70;1.00;;;;;;5045365;28;20462;-57
2023/06/08 00:06:44;;;;;;;19.30;17.13;;;20.70;1.00;;;;;;5046911;28;20805;-56
2023/06/08 00:09:10;;;;;;;20.20;15.70;;;20.50;1.00;;;;;;5047308;28;20447;-56
2023/06/08 00:11:39;;;;;;;17.10;15.40;;;20.40;1.00;;;;;;5045081;28;20192;-56
2023/06/08 00:14:04;;;;;;;19.20;15.90;;;20.20;1.00;;;;;;5046421;28;20417;-55
2023/06/08 00:16:30;;;;;;;19.47;16.83;;;20.30;1.00;;;;;;5044536;28;20429;-57
2023/06/08 00:18:56;;;;;;;17.07;15.67;;;20.30;1.00;;;;;;5042362;28;20180;-56
2023/06/08 00:21:23;;;;;;;15.93;14.47;;;20.20;1.00;;;;;;5048944;28;20227;-56
2023/06/08 00:23:50;;;;;;;16.63;15.10;;;20.10;1.00;;;;;;5049515;28;20439;-55
2023/06/08 00:26:15;;;;;;;16.83;15.43;;;20.10;1.00;;;;;;5048774;28;20413;-56
2023/06/08 00:28:41;;;;;;;15.60;14.30;;;20.10;1.00;;;;;;5050492;28;20435;-56
2023/06/08 00:31:08;;;;;;;16.03;14.63;;;20.10;1.00;;;;;;5046283;28;20215;-55
2023/06/08 00:33:36;;;;;;;21.97;15.23;;;20.10;1.00;;;;;;5046935;28;20191;-55
2023/06/08 00:36:04;;;;;;;17.10;15.63;;;20.10;1.00;;;;;;5046059;28;20943;-56
2023/06/08 00:38:30;;;;;;;16.53;15.00;;;20.10;1.00;;;;;;5046314;28;20825;-54
2023/06/08 00:40:55;;;;;;;16.97;15.57;;;20.00;1.00;;;;;;5043462;28;20448;-55
2023/06/08 00:43:21;;;;;;;16.00;14.70;;;20.00;1.00;;;;;;5046467;28;20272;-56
2023/06/08 00:45:47;;;;;;;18.37;16.27;;;20.00;1.00;;;;;;5044982;28;20195;-55
2023/06/08 00:48:14;;;;;;;17.77;15.97;;;19.90;1.00;;;;;;5046990;28;20669;-55
2023/06/08 00:50:41;;;;;;;17.70;16.20;;;19.90;1.00;;;;;;5043842;28;20217;-56
2023/06/08 00:53:07;;;;;;;16.57;15.17;;;19.90;1.00;;;;;;5045896;28;20447;-56
2023/06/08 00:55:33;;;;;;;16.70;15.30;;;19.90;1.00;;;;;;5046188;28;20425;-55
2023/06/08 00:58:00;;;;;;;16.30;14.93;;;19.90;1.00;;;;;;5046243;28;20193;-55
2023/06/08 01:00:27;;;;;;;17.73;15.90;;;20.00;1.00;;;;;;5042443;28;20475;-55
2023/06/08 01:02:55;;;;;;;16.47;15.07;;;20.00;1.00;;;;;;5038607;28;20479;-55
2023/06/08 01:05:21;;;;;;;16.97;15.53;;;20.00;1.00;;;;;;5046794;28;20455;-56
2023/06/08 01:08:32;;;;;;;17.70;16.03;;;20.00;1.00;;;;;;5045560;28;20470;-55
2023/06/08 01:11:31;;;;;;;15.97;14.47;;;20.00;1.00;;;;;;5044900;28;20441;-55
2023/06/08 01:14:25;;;;;;;17.57;15.97;;;20.10;1.00;;;;;;5046279;28;20454;-57
2023/06/08 01:16:54;;;;;;;19.10;17.37;;;20.20;1.00;;;;;;5051706;28;20470;-55
2023/06/08 01:19:39;;;;;;;19.97;18.27;;;20.00;1.00;;;;;;5045221;28;20486;-56
2023/06/08 01:22:49;;;;;;;19.60;17.70;;;20.10;1.00;;;;;;5044697;28;20456;-57
2023/06/08 01:25:16;;;;;;;19.33;17.83;;;20.00;1.00;;;;;;5021951;28;20571;-56
2023/06/08 01:27:44;;;;;;;19.00;17.50;;;20.00;1.00;;;;;;5038497;28;20459;-56
2023/06/08 01:30:10;;;;;;;16.60;15.33;;;19.90;1.00;;;;;;5034636;28;20566;-56
2023/06/08 01:32:36;;;;;;;19.37;17.87;;;19.90;1.00;;;;;;5046027;28;20448;-55
2023/06/08 01:35:02;;;;;;;19.80;18.10;;;19.90;1.00;;;;;;5047219;28;20454;-56
2023/06/08 01:37:36;;;;;;;19.63;17.67;;;19.90;1.00;;;;;;5047130;28;20695;-54
2023/06/08 01:40:40;;;;;;;18.13;16.63;;;19.90;1.00;;;;;;5043366;28;20424;-56
2023/06/08 01:43:09;;;;;;;19.20;17.30;;;19.90;1.00;;;;;;5039189;28;20449;-56
2023/06/08 01:45:40;;;;;;;19.70;17.63;;;19.90;1.00;;;;;;5049853;28;20450;-55
2023/06/08 01:48:07;;;;;;;19.20;17.60;;;19.70;1.00;;;;;;5049245;28;20428;-55
2023/06/08 01:50:35;;;;;;;19.20;17.60;;;19.60;1.00;;;;;;5045947;28;20479;-56
2023/06/08 01:53:01;;;;;;;18.10;16.60;;;19.70;1.00;;;;;;5044019;28;20425;-55
2023/06/08 01:55:29;;;;;;;19.30;17.70;;;19.70;1.00;;;;;;5050470;28;20469;-55
2023/06/08 01:57:55;;;;;;;19.60;17.73;;;19.70;1.00;;;;;;5052012;28;20238;-55
2023/06/08 02:00:22;;;;;;;21.13;19.27;;;19.70;1.00;;;;;;5047172;28;20546;-57
2023/06/08 02:02:47;;;;;;;20.90;19.00;;;19.70;1.00;;;;;;5047785;28;20192;-56
2023/06/08 02:05:14;;;;;;;23.50;21.57;;;19.80;1.00;;;;;;5048391;28;21038;-54
2023/06/08 02:07:41;;;;;;;22.83;20.77;;;19.80;1.00;;;;;;5049576;28;20189;-54
2023/06/08 02:10:08;;;;;;;22.27;20.10;;;19.80;1.00;;;;;;5049285;28;20466;-55
2023/06/08 02:12:34;;;;;;;22.67;20.73;;;19.80;1.00;;;;;;5046046;28;20418;-56
2023/06/08 02:15:00;;;;;;;24.60;22.60;;;19.90;1.00;;;;;;5039976;28;20440;-55
2023/06/08 02:17:27;;;;;;;23.90;21.80;;;19.90;1.00;;;;;;5048956;28;20475;-56
2023/06/08 02:19:54;;;;;;;23.70;21.60;;;19.90;1.00;;;;;;5058120;28;20463;-55
2023/06/08 02:22:20;;;;;;;21.90;19.90;;;19.90;1.00;;;;;;5050123;28;20952;-55
2023/06/08 02:24:46;;;;;;;22.67;20.67;;;19.90;1.00;;;;;;5049052;28;20439;-54
2023/06/08 02:27:13;;;;;;;20.90;19.30;;;19.80;1.00;;;;;;5048350;28;20542;-56
2023/06/08 02:29:39;;;;;;;22.87;20.83;;;19.80;1.00;;;;;;5055707;28;20706;-56
2023/06/08 02:32:06;;;;;;;24.10;22.13;;;19.80;1.00;;;;;;5044051;28;20419;-54
2023/06/08 02:34:32;;;;;;;22.83;21.00;;;20.00;1.00;;;;;;5044678;28;20500;-55
2023/06/08 02:36:58;;;;;;;22.57;20.67;;;19.90;1.00;;;;;;5048430;28;20560;-55
2023/06/08 02:39:24;;;;;;;21.93;20.13;;;19.90;1.00;;;;;;5047609;28;20451;-57
2023/06/08 02:41:50;;;;;;;23.60;21.60;;;19.90;1.00;;;;;;5049878;28;20586;-55
2023/06/08 02:44:15;;;;;;;22.57;20.63;;;19.80;1.00;;;;;;5044511;28;20192;-56
2023/06/08 02:46:41;;;;;;;24.33;20.90;;;19.80;1.00;;;;;;5046272;28;20602;-55
2023/06/08 02:49:07;;;;;;;22.13;20.13;;;19.80;1.00;;;;;;5051264;28;20187;-55
2023/06/08 02:51:33;;;;;;;23.83;21.63;;;19.80;1.00;;;;;;5048289;28;20452;-56
2023/06/08 02:53:59;;;;;;;23.23;20.87;;;19.80;1.00;;;;;;5054192;28;20192;-55
2023/06/08 02:56:25;;;;;;;22.97;21.00;;;19.80;1.00;;;;;;5048628;28;20474;-56
2023/06/08 02:58:51;;;;;;;22.07;20.03;;;19.80;1.00;;;;;;5047703;28;20443;-55
2023/06/08 03:01:17;;;;;;;22.87;20.90;;;19.70;1.00;;;;;;5049305;28;20502;-56
2023/06/08 03:03:44;;;;;;;22.43;20.57;;;19.80;1.00;;;;;;5042177;28;20439;-56
2023/06/08 03:06:12;;;;;;;22.07;20.17;;;19.80;1.00;;;;;;5043840;28;20450;-55
2023/06/08 03:08:41;;;;;;;22.90;20.80;;;19.80;1.00;;;;;;5045982;28;20651;-55
2023/06/08 03:11:07;;;;;;;20.77;18.97;;;19.80;1.00;;;;;;5047812;28;20489;-56
2023/06/08 03:13:33;;;;;;;19.00;17.43;;;19.80;1.00;;;;;;5047188;28;20446;-56
2023/06/08 03:15:59;;;;;;;20.00;18.20;;;19.70;1.00;;;;;;5049420;28;20972;-55
2023/06/08 03:18:25;;;;;;;21.00;19.10;;;19.70;1.00;;;;;;5055792;28;20948;-55
2023/06/08 03:20:51;;;;;;;21.43;19.63;;;19.60;1.00;;;;;;5050967;28;20465;-55
2023/06/08 03:23:20;;;;;;;20.77;18.87;;;19.60;1.00;;;;;;5044475;28;20196;-55
2023/06/08 03:25:50;;;;;;;21.30;19.43;;;19.60;1.00;;;;;;5048605;28;20461;-55
2023/06/08 03:28:16;;;;;;;19.53;18.03;;;19.60;1.00;;;;;;5046480;28;20524;-55
2023/06/08 03:30:42;;;;;;;21.47;19.47;;;19.60;1.00;;;;;;5045464;28;20463;-55
2023/06/08 03:33:08;;;;;;;21.93;20.00;;;19.60;1.00;;;;;;5045190;28;20504;-55
2023/06/08 03:35:33;;;;;;;22.60;20.30;;;19.60;1.00;;;;;;5049452;28;20172;-56
2023/06/08 03:37:59;;;;;;;21.87;20.13;;;19.50;1.00;;;;;;5046142;28;20643;-56
2023/06/08 03:40:25;;;;;;;21.17;19.30;;;19.60;1.00;;;;;;5044859;28;20190;-55
2023/06/08 03:42:50;;;;;;;20.57;18.77;;;19.60;1.00;;;;;;5046745;28;20207;-55
2023/06/08 03:45:17;;;;;;;22.23;20.00;;;19.70;1.00;;;;;;5045662;28;20196;-57
2023/06/08 03:47:43;;;;;;;19.60;17.90;;;19.70;1.00;;;;;;5043303;28;20793;-56
2023/06/08 03:50:11;;;;;;;32.60;29.70;;;19.70;1.00;;;;;;5044947;28;20984;-55
2023/06/08 03:52:38;;;;;;;26.00;23.90;;;19.80;1.00;;;;;;5047960;28;20472;-55
2023/06/08 03:55:06;;;;;;;23.53;21.60;;;19.80;1.00;;;;;;5042520;28;20457;-56
2023/06/08 03:57:31;;;;;;;22.33;20.57;;;19.90;1.00;;;;;;5045905;28;20472;-55
2023/06/08 03:59:57;;;;;;;21.60;19.80;;;20.00;1.00;;;;;;5048387;28;20486;-54
2023/06/08 04:02:22;;;;;;;21.17;19.30;;;20.10;1.00;;;;;;5045515;28;20307;-55
2023/06/08 04:04:48;;;;;;;20.00;18.30;;;20.10;1.00;;;;;;5043591;28;20209;-56
2023/06/08 04:07:14;;;;;;;22.30;20.40;;;20.10;1.00;;;;;;5048110;28;20197;-56
2023/06/08 04:09:40;;;;;;;21.93;19.87;;;20.20;1.00;;;;;;5048242;28;20218;-56
2023/06/08 04:12:06;;;;;;;23.97;21.67;;;20.20;1.00;;;;;;5048445;28;20184;-56
2023/06/08 04:14:32;;;;;;;22.07;20.27;;;20.20;1.00;;;;;;5045628;28;20177;-56
2023/06/08 04:16:58;;;;;;;23.90;21.83;;;20.10;1.00;;;;;;5043769;28;20458;-55
2023/06/08 04:19:23;;;;;;;23.33;21.23;;;20.10;1.00;;;;;;5047160;28;20539;-55
2023/06/08 04:21:49;;;;;;;22.30;20.40;;;20.00;1.00;;;;;;5056205;28;20681;-56
2023/06/08 04:24:16;;;;;;;22.23;20.33;;;20.00;1.00;;;;;;5063878;28;20312;-56
2023/06/08 04:26:42;;;;;;;21.00;19.20;;;20.00;1.00;;;;;;5055159;28;21058;-56
2023/06/08 04:29:09;;;;;;;23.27;21.27;;;20.00;1.00;;;;;;5059045;28;20475;-55
2023/06/08 04:31:35;;;;;;;20.33;18.33;;;20.00;1.00;;;;;;5057491;28;20649;-55
2023/06/08 04:34:01;;;;;;;21.77;19.77;;;19.90;1.00;;;;;;5061220;28;20988;-55
2023/06/08 04:36:27;;;;;;;22.07;20.27;;;19.90;1.00;;;;;;5051623;28;20422;-56
2023/06/08 04:38:52;;;;;;;22.77;20.53;;;19.90;1.00;;;;;;5054952;28;20614;-56
2023/06/08 04:41:18;;;;;;;21.00;19.40;;;19.80;1.00;;;;;;5052658;28;20181;-56
2023/06/08 04:43:45;;;;;;;21.73;19.93;;;19.80;1.00;;;;;;5059894;28;20187;-55
2023/06/08 04:46:12;;;;;;;23.37;21.47;;;19.70;1.00;;;;;;5059992;28;20478;-55
2023/06/08 04:48:39;;;;;;;22.10;20.43;;;19.70;1.00;;;;;;5054248;28;20461;-55
2023/06/08 04:51:09;;;;;;;20.20;18.50;;;19.80;1.00;;;;;;5056206;28;20577;-55
2023/06/08 04:53:35;;;;;;;23.03;20.93;;;19.80;1.00;;;;;;5058236;28;20457;-56
2023/06/08 04:56:02;;;;;;;22.30;20.50;;;19.90;1.00;;;;;;5049539;28;20428;-56
2023/06/08 04:58:29;;;;;;;22.60;20.53;;;20.00;1.00;;;;;;5057664;28;20447;-56
2023/06/08 05:00:56;;;;;;;22.83;20.73;;;20.00;1.00;;;;;;5053106;28;20514;-56
2023/06/08 05:03:22;;;;;;;22.73;20.83;;;20.00;1.00;;;;;;5055240;28;20538;-56
2023/06/08 05:05:48;;;;;;;21.60;19.80;;;20.00;1.00;;;;;;5048058;28;20825;-58
2023/06/08 05:08:15;;;;;;;22.57;20.57;;;19.90;1.00;;;;;;5065056;28;20454;-55
2023/06/08 05:10:40;;;;;;;22.93;20.90;;;20.00;1.00;;;;;;5059071;28;20472;-56
2023/06/08 05:13:06;;;;;;;23.03;21.07;;;19.90;1.00;;;;;;5059605;28;20843;-56
2023/06/08 05:15:31;;;;;;;23.67;21.77;;;19.90;1.00;;;;;;5054548;28;20194;-56
2023/06/08 05:17:57;;;;;;;24.70;22.47;;;19.80;1.00;;;;;;5058262;28;20185;-56
2023/06/08 05:20:25;;;;;;;25.10;22.80;;;19.80;1.00;;;;;;5055717;28;20192;-56
2023/06/08 05:22:51;;;;;;;24.47;22.30;;;19.90;1.00;;;;;;5051953;28;20495;-55
2023/06/08 05:25:17;;;;;;;24.30;21.70;;;19.90;1.00;;;;;;5055656;28;20508;-56
2023/06/08 05:27:43;;;;;;;23.33;21.23;;;19.90;1.00;;;;;;5060459;28;20455;-56
2023/06/08 05:30:09;;;;;;;22.80;20.70;;;19.80;1.00;;;;;;5049735;28;20282;-55
2023/06/08 05:32:35;;;;;;;23.97;21.80;;;19.90;1.00;;;;;;5060410;28;20809;-55
2023/06/08 05:35:02;;;;;;;23.83;21.93;;;19.90;1.00;;;;;;5062896;28;20414;-56
2023/06/08 05:37:27;;;;;;;22.40;20.40;;;19.90;1.00;;;;;;5054492;28;20449;-57
2023/06/08 05:39:53;;;;;;;25.10;22.80;;;19.90;1.00;;;;;;5064652;28;20941;-56
2023/06/08 05:42:20;;;;;;;23.97;21.90;;;19.90;1.00;;;;;;5069934;28;20190;-56
2023/06/08 05:44:47;;;;;;;23.23;20.97;;;20.00;1.00;;;;;;5065968;28;20184;-55
2023/06/08 05:47:12;;;;;;;22.97;21.00;;;20.00;1.00;;;;;;5062863;28;20548;-55
2023/06/08 05:49:38;;;;;;;22.73;20.77;;;19.90;1.00;;;;;;5062644;28;20942;-55
2023/06/08 05:52:04;;;;;;;23.43;21.20;;;19.90;1.00;;;;;;5063612;28;20262;-55
2023/06/08 05:54:30;;;;;;;24.50;22.33;;;20.10;1.00;;;;;;5057937;28;20184;-56
2023/06/08 05:56:56;;;;;;;23.00;21.10;;;20.20;1.00;;;;;;5065546;28;20447;-56
2023/06/08 05:59:22;;;;;;;23.93;21.60;;;20.40;1.00;;;;;;5059802;28;20220;-56
2023/06/08 06:01:48;;;;;;;22.53;20.70;;;20.20;1.00;;;;;;5058620;28;20971;-57
2023/06/08 06:04:14;;;;;;;25.37;22.87;;;20.80;1.00;;;;;;5062094;28;20209;-56
2023/06/08 06:06:40;;;;;;;22.60;20.77;;;20.90;1.00;;;;;;5063364;28;20461;-56
2023/06/08 06:09:06;;;;;;;24.47;22.23;;;20.90;1.00;;;;;;5056444;28;20447;-56
2023/06/08 06:11:32;;;;;;;24.37;22.07;;;21.00;1.00;;;;;;5059013;28;20208;-55
2023/06/08 06:14:00;;;;;;;23.53;21.33;;;21.20;1.00;;;;;;5055024;28;20231;-55
2023/06/08 06:16:26;;;;;;;22.90;21.00;;;21.20;1.00;;;;;;5061000;28;20201;-55
2023/06/08 06:18:52;;;;;;;25.00;20.63;;;21.10;1.00;;;;;;5059392;28;20450;-55
2023/06/08 06:21:17;;;;;;;23.20;21.23;;;21.20;1.00;;;;;;5062174;28;20195;-56
2023/06/08 06:23:44;;;;;;;23.90;21.70;;;21.20;1.00;;;;;;5061843;28;20380;-57
2023/06/08 06:26:11;;;;;;;21.97;20.03;;;21.30;1.00;;;;;;5055289;28;20189;-56
2023/06/08 06:28:38;;;;;;;25.43;23.10;;;21.50;1.00;;;;;;5060786;28;20931;-56
2023/06/08 06:31:03;;;;;;;24.23;22.00;;;21.80;1.00;;;;;;5066947;28;20462;-56
2023/06/08 06:33:29;;;;;;;23.40;21.50;;;22.00;1.00;;;;;;5065440;28;21001;-56
2023/06/08 06:35:55;;;;;;;23.30;21.40;;;22.20;1.00;;;;;;5064653;28;20189;-57
2023/06/08 06:38:21;;;;;;;23.23;21.30;;;22.40;1.00;;;;;;5065790;28;20440;-56
2023/06/08 06:40:52;;;;;;;23.00;20.90;;;22.70;1.00;;;;;;5051673;28;20185;-56
2023/06/08 06:43:21;;;;;;;22.40;20.57;;;23.00;1.00;;;;;;5058318;28;20594;-55
2023/06/08 06:45:50;;;;;;;23.20;21.07;;;23.20;1.00;;;;;;5060918;28;21006;-55
2023/06/08 06:48:20;;;;;;;21.97;20.27;;;23.30;1.00;;;;;;5068473;28;20430;-56
2023/06/08 06:50:46;;;;;;;20.47;18.83;;;23.40;1.00;;;;;;5053618;28;20462;-57
2023/06/08 06:53:12;;;;;;;22.40;20.50;;;23.40;1.00;;;;;;5053749;28;20971;-56
2023/06/08 06:55:38;;;;;;;22.33;20.47;;;23.70;1.00;;;;;;5058300;28;20460;-56
2023/06/08 06:58:04;;;;;;;23.30;21.60;;;24.20;1.00;;;;;;5053206;28;20225;-57
2023/06/08 07:00:37;;;;;;;22.80;20.90;;;24.30;1.00;;;;;;5050152;28;20701;-55
2023/06/08 07:03:06;;;;;;;23.63;21.70;;;24.30;1.00;;;;;;5055028;28;20660;-56
2023/06/08 07:05:36;;;;;;;22.43;20.83;;;24.40;1.00;;;;;;5060418;28;20774;-56
2023/06/08 07:08:02;;;;;;;21.67;20.03;;;24.30;1.00;;;;;;5061101;28;20420;-56
2023/06/08 07:10:29;;;;;;;23.77;21.70;;;24.70;1.00;;;;;;5053824;28;20493;-55
2023/06/08 07:12:56;;;;;;;23.37;21.40;;;24.50;1.00;;;;;;5056617;28;20415;-56
2023/06/08 07:15:22;;;;;;;21.10;19.30;;;24.60;1.00;;;;;;5056012;28;20423;-57
2023/06/08 07:17:47;;;;;;;24.37;22.40;;;24.60;1.00;;;;;;5057591;28;20980;-57
2023/06/08 07:20:13;;;;;;;23.03;21.23;;;24.80;1.00;;;;;;5061255;28;20282;-57
2023/06/08 07:22:39;;;;;;;23.23;21.37;;;25.00;1.00;;;;;;5054106;28;20194;-56
2023/06/08 07:25:05;;;;;;;23.77;21.50;;;25.20;99.90;;;;;;5065677;28;20273;-56
2023/06/08 07:27:31;;;;;;;23.73;22.03;;;25.40;99.90;;;;;;5059649;28;20191;-55
2023/06/08 07:29:57;;;;;;;24.43;22.63;;;25.40;99.90;;;;;;5063391;28;21175;-57
2023/06/08 07:32:22;;;;;;;23.70;21.80;;;25.20;99.90;;;;;;5052663;28;20672;-56
2023/06/08 07:34:48;;;;;;;22.90;21.20;;;25.10;99.90;;;;;;5060460;28;20226;-57
2023/06/08 07:37:14;;;;;;;22.07;20.33;;;26.00;99.90;;;;;;5058922;28;20256;-56
2023/06/08 07:39:39;;;;;;;22.60;21.00;;;25.30;99.90;;;;;;5058632;28;20183;-55
2023/06/08 07:42:05;;;;;;;21.70;20.00;;;25.30;99.90;;;;;;5061782;28;20670;-57
2023/06/08 07:44:31;;;;;;;22.60;20.93;;;25.20;99.90;;;;;;5057803;28;20248;-57
2023/06/08 07:46:57;;;;;;;21.80;20.10;;;25.00;99.90;;;;;;5064795;28;20420;-56
2023/06/08 07:49:23;;;;;;;22.00;20.23;;;25.10;99.90;;;;;;5061167;28;20439;-57
2023/06/08 07:51:50;;;;;;;21.33;19.53;;;25.20;99.90;;;;;;5061166;28;20184;-58
2023/06/08 07:54:19;;;;;;;20.90;19.07;;;25.30;99.90;;;;;;5050969;28;20440;-56
2023/06/08 07:56:46;;;;;;;18.90;17.40;;;25.60;99.90;;;;;;5054566;28;20884;-56
2023/06/08 07:59:12;;;;;;;21.63;20.03;;;25.70;99.90;;;;;;5056180;28;20829;-57
2023/06/08 08:01:37;;;;;;;20.77;18.87;;;25.80;99.90;;;;;;5065110;28;20461;-57
2023/06/08 08:04:03;;;;;;;20.37;18.97;;;26.20;99.90;;;;;;5058208;28;20275;-56
2023/06/08 08:06:29;;;;;;;21.03;19.27;;;26.40;99.90;;;;;;5067166;28;20191;-56
2023/06/08 08:08:55;;;;;;;20.03;18.63;;;26.40;99.90;;;;;;5055432;28;20291;-56
2023/06/08 08:11:21;;;;;;;19.67;17.93;;;26.30;99.90;;;;;;5054274;28;20443;-56
2023/06/08 08:13:47;;;;;;;18.53;17.23;;;26.50;99.90;;;;;;5057869;28;20982;-56
2023/06/08 08:16:12;;;;;;;18.87;17.57;;;27.00;99.90;;;;;;5048196;28;20181;-57
2023/06/08 08:18:38;;;;;;;19.17;17.70;;;27.30;99.90;;;;;;5055946;28;20186;-56
2023/06/08 08:21:04;;;;;;;20.00;18.50;;;27.40;99.90;;;;;;5051762;28;20193;-56
2023/06/08 08:23:29;;;;;;;20.03;18.53;;;27.40;99.90;;;;;;5057335;28;20307;-56
2023/06/08 08:25:55;;;;;;;18.33;17.03;;;27.60;99.90;;;;;;5050076;28;20200;-56
2023/06/08 08:28:20;;;;;;;18.77;17.17;;;27.70;99.90;;;;;;5061780;28;20181;-57
2023/06/08 08:30:46;;;;;;;16.77;15.37;;;27.40;99.90;;;;;;5053177;28;20210;-56
2023/06/08 08:33:12;;;;;;;17.57;16.17;;;27.30;99.90;;;;;;5060078;28;20590;-56
2023/06/08 08:35:38;;;;;;;17.73;16.23;;;27.00;99.90;;;;;;5061364;28;20612;-56
2023/06/08 08:38:04;;;;;;;16.73;15.53;;;26.70;99.90;;;;;;5048168;28;20439;-56
2023/06/08 08:40:29;;;;;;;17.67;16.47;;;26.50;99.90;;;;;;5049723;28;20236;-58
2023/06/08 08:43:09;;;;;;;17.07;15.77;;;26.80;99.90;;;;;;5054411;28;20205;-58
2023/06/08 08:45:38;;;;;;;16.37;15.13;;;27.20;99.90;;;;;;5060774;28;20211;-57
2023/06/08 08:48:07;;;;;;;20.17;18.67;;;27.80;99.90;;;;;;5065040;28;20414;-58
2023/06/08 08:50:38;;;;;;;17.27;15.93;;;27.80;99.90;;;;;;5062633;28;20465;-57
2023/06/08 08:53:06;;;;;;;17.83;16.37;;;27.90;99.90;;;;;;5052592;28;20410;-59
2023/06/08 08:55:33;;;;;;;18.87;17.37;;;28.10;99.90;;;;;;5061857;28;20441;-56
2023/06/08 08:58:00;;;;;;;17.53;16.33;;;28.30;99.90;;;;;;5065617;28;20488;-56
2023/06/08 09:00:27;;;;;;;16.53;15.20;;;28.50;99.90;;;;;;5062825;28;20535;-55
2023/06/08 09:02:53;;;;;;;17.50;16.20;;;28.40;99.90;;;;;;5055516;28;20419;-56
2023/06/08 09:05:19;;;;;;;17.37;16.07;;;28.50;99.90;;;;;;5060107;28;20848;-55
2023/06/08 09:07:45;;;;;;;16.13;14.60;;;28.60;99.90;;;;;;5066207;28;20181;-56
2023/06/08 09:10:19;;;;;;;16.50;15.20;;;28.50;99.90;;;;;;5059006;28;20329;-55
2023/06/08 09:12:47;;;;;;;15.97;14.57;;;28.20;99.90;;;;;;5051579;28;20191;-57
2023/06/08 09:15:23;;;;;;;15.47;14.37;;;28.30;99.90;;;;;;5062966;28;20431;-56
2023/06/08 09:17:50;;;;;;;15.30;14.10;;;28.40;99.90;;;;;;5059519;28;20415;-55
2023/06/08 09:20:29;;;;;;;14.87;13.67;;;28.40;99.90;;;;;;5062408;28;20420;-56
2023/06/08 09:22:55;;;;;;;15.37;14.20;;;28.40;99.90;;;;;;5062758;28;20932;-56
2023/06/08 09:25:37;;;;;;;15.97;14.47;;;28.30;99.90;;;;;;5055909;28;20710;-57
2023/06/08 09:28:16;;;;;;;15.10;13.80;;;28.10;99.90;;;;;;5063145;28;20423;-56
2023/06/08 09:30:48;;;;;;;16.27;14.80;;;27.80;99.90;;;;;;5060230;28;20558;-56
2023/06/08 09:33:29;;;;;;;15.40;14.30;;;27.60;99.90;;;;;;5061467;28;20964;-56
2023/06/08 09:35:57;;;;;;;15.00;14.00;;;27.60;99.90;;;;;;5050027;28;20421;-57
2023/06/08 09:38:25;;;;;;;14.87;13.77;;;28.10;99.90;;;;;;5060990;28;20415;-56
2023/06/08 09:40:51;;;;;;;16.53;15.13;;;28.40;99.90;;;;;;5051993;28;20423;-57
2023/06/08 09:43:34;;;;;;;16.40;14.90;;;28.80;99.90;;;;;;5050119;28;20790;-56
2023/06/08 09:45:59;;;;;;;16.30;15.20;;;29.00;99.90;;;;;;5055644;28;20465;-56
2023/06/08 09:48:25;;;;;;;15.37;14.23;;;29.00;99.90;;;;;;5061033;28;20400;-56
2023/06/08 09:50:58;;;;;;;14.73;13.63;;;29.10;99.90;;;;;;5050889;28;20215;-57
2023/06/08 09:53:25;;;;;;;15.33;14.17;;;29.00;99.90;;;;;;5056633;28;20586;-57
2023/06/08 09:55:53;;;;;;;14.53;13.20;;;28.90;99.90;;;;;;5049032;28;20764;-56
2023/06/08 09:58:22;;;;;;;14.57;13.47;;;29.00;99.90;;;;;;5053829;28;20953;-55
2023/06/08 10:00:51;;;;;;;15.37;14.07;;;29.10;99.90;;;;;;5063960;28;20961;-56
2023/06/08 10:03:25;;;;;;;12.60;11.80;;;29.20;99.90;;;;;;5059348;28;20528;-57
2023/06/08 10:05:51;;;;;;;13.70;12.73;;;29.20;99.90;;;;;;5065056;28;20486;-57
2023/06/08 10:08:21;;;;;;;13.70;12.70;;;29.10;99.90;;;;;;5059929;28;20911;-57
2023/06/08 10:10:47;;;;;;;13.20;12.30;;;29.00;99.90;;;;;;5059992;28;20214;-56
2023/06/08 10:13:15;;;;;;;12.67;11.77;;;29.00;99.90;;;;;;5063264;28;20775;-57
2023/06/08 10:15:42;;;;;;;12.83;11.83;;;29.00;99.90;;;;;;5067613;28;20180;-58
2023/06/08 10:18:08;;;;;;;12.37;11.43;;;28.90;99.90;;;;;;5063784;28;20438;-57
2023/06/08 10:20:35;;;;;;;12.97;11.77;;;29.10;99.90;;;;;;5054199;28;20442;-57
2023/06/08 10:23:02;;;;;;;12.90;11.80;;;29.20;99.90;;;;;;5057761;28;20765;-58
2023/06/08 10:25:30;;;;;;;13.20;12.20;;;29.40;99.90;;;;;;5061608;28;20905;-57
2023/06/08 10:28:06;;;;;;;14.37;13.13;;;29.60;99.90;;;;;;5059876;28;20566;-56
2023/06/08 10:30:41;;;;;;;12.80;11.90;;;29.60;99.90;;;;;;5070697;28;20563;-56
2023/06/08 10:33:10;;;;;;;12.87;11.83;;;29.50;99.90;;;;;;5060652;28;20788;-57
2023/06/08 10:35:40;;;;;;;13.40;12.17;;;29.30;99.90;;;;;;5062890;28;20439;-56
2023/06/08 10:38:16;;;;;;;13.73;12.33;;;29.00;99.90;;;;;;5065305;28;20528;-55
2023/06/08 10:40:51;;;;;;;15.30;13.87;;;29.20;99.90;;;;;;5060590;28;20799;-55
2023/06/08 10:43:21;;;;;;;15.23;13.77;;;29.50;99.90;;;;;;5055692;28;20456;-57
2023/06/08 10:45:48;;;;;;;14.40;13.37;;;29.80;99.90;;;;;;5059786;28;20925;-56
2023/06/08 10:48:19;;;;;;;13.17;12.07;;;29.80;99.90;;;;;;5052149;28;20934;-56
2023/06/08 10:50:47;;;;;;;14.00;12.90;;;29.70;99.90;;;;;;5065765;28;20530;-56
2023/06/08 10:53:20;;;;;;;14.47;13.40;;;29.70;99.90;;;;;;5060443;28;20452;-56
2023/06/08 10:55:50;;;;;;;13.73;12.73;;;29.70;99.90;;;;;;5056927;28;20450;-55
2023/06/08 10:58:20;;;;;;;15.00;13.80;;;29.40;99.90;;;;;;5052283;28;20938;-55
2023/06/08 11:01:03;;;;;;;14.37;13.27;;;29.40;99.90;;;;;;5059451;28;20480;-57
2023/06/08 11:03:46;;;;;;;13.43;12.43;;;29.30;99.90;;;;;;5057995;28;21272;-56
2023/06/08 11:06:13;;;;;;;14.50;13.00;;;29.40;99.90;;;;;;5064399;28;20802;-56
2023/06/08 11:08:39;;;;;;;12.67;11.57;;;29.20;99.90;;;;;;5055231;28;20588;-57
2023/06/08 11:11:05;;;;;;;14.00;12.70;;;29.10;99.90;;;;;;5063861;28;20494;-57
2023/06/08 11:13:31;;;;;;;13.17;12.20;;;29.40;99.90;;;;;;5060463;28;20530;-57
2023/06/08 11:15:57;;;;;;;14.27;13.10;;;29.00;99.90;;;;;;5059208;28;20189;-56
2023/06/08 11:18:24;;;;;;;14.73;13.63;;;29.00;99.90;;;;;;5056812;28;20684;-57
2023/06/08 11:20:50;;;;;;;14.40;12.70;;;29.40;99.90;;;;;;5066232;28;20443;-57
2023/06/08 11:23:15;;;;;;;13.80;12.50;;;29.40;99.90;;;;;;5065753;28;20431;-57
2023/06/08 11:25:44;;;;;;;15.07;13.73;;;29.30;99.90;;;;;;5053645;28;20960;-56
2023/06/08 11:28:11;;;;;;;13.93;12.77;;;29.60;99.90;;;;;;5057687;28;20294;-56
2023/06/08 11:30:37;;;;;;;13.87;12.80;;;29.40;99.90;;;;;;5057640;28;20813;-57
2023/06/08 11:33:08;;;;;;;15.13;13.97;;;29.60;99.90;;;;;;5058133;28;20946;-56
2023/06/08 11:35:34;;;;;;;15.20;14.10;;;29.90;99.90;;;;;;5048904;28;20505;-57
2023/06/08 11:38:01;;;;;;;17.73;16.23;;;29.70;99.90;;;;;;5056935;28;20481;-57
2023/06/08 11:40:28;;;;;;;18.53;16.73;;;29.30;99.90;;;;;;5053396;28;20486;-56
2023/06/08 11:42:53;;;;;;;16.20;15.07;;;29.20;99.90;;;;;;5053155;28;20445;-57
2023/06/08 11:45:20;;;;;;;16.10;14.70;;;29.30;99.90;;;;;;5058169;28;20419;-57
2023/06/08 11:47:46;;;;;;;16.20;14.90;;;29.90;99.90;;;;;;5058825;28;20191;-56
2023/06/08 11:50:13;;;;;;;16.47;15.13;;;30.00;99.90;;;;;;5059580;28;20860;-57
2023/06/08 11:52:41;;;;;;;17.40;16.00;;;30.00;99.90;;;;;;5045705;28;20209;-58
2023/06/08 11:55:11;;;;;;;16.50;15.20;;;29.70;99.90;;;;;;5053876;28;20445;-58
2023/06/08 11:57:43;;;;;;;17.87;16.27;;;29.50;99.90;;;;;;5065208;28;20436;-56
2023/06/08 12:00:24;;;;;;;16.00;14.80;;;29.40;99.90;;;;;;5061507;28;20466;-58
2023/06/08 12:02:51;;;;;;;16.57;15.20;;;29.30;99.90;;;;;;5058699;28;20939;-56
2023/06/08 12:05:25;;;;;;;16.30;15.10;;;29.40;99.90;;;;;;5051771;28;20730;-58
2023/06/08 12:08:01;;;;;;;16.90;15.57;;;29.10;99.90;;;;;;5064248;28;20506;-57
2023/06/08 12:10:37;;;;;;;17.73;16.33;;;28.90;99.90;;;;;;5055073;28;20822;-57
2023/06/08 12:13:08;;;;;;;15.73;14.43;;;28.70;99.90;;;;;;5058917;28;20463;-57
2023/06/08 12:15:35;;;;;;;16.70;15.50;;;28.50;99.90;;;;;;5056758;28;21006;-56
2023/06/08 12:18:02;;;;;;;15.10;13.90;;;28.50;99.90;;;;;;5053691;28;20453;-57
2023/06/08 12:20:33;;;;;;;15.77;14.47;;;28.70;99.90;;;;;;5062118;28;20441;-56
2023/06/08 12:22:59;;;;;;;15.57;14.30;;;28.80;99.90;;;;;;5065834;28;20449;-57
2023/06/08 12:25:25;;;;;;;16.40;15.13;;;29.00;99.90;;;;;;5058167;28;20440;-57
2023/06/08 12:27:51;;;;;;;17.23;15.80;;;29.10;99.90;;;;;;5058968;28;20190;-56
2023/06/08 12:30:17;;;;;;;17.23;15.53;;;28.70;99.90;;;;;;5070878;28;20469;-57
2023/06/08 12:32:44;;;;;;;16.50;15.40;;;28.50;99.90;;;;;;5066618;28;20429;-55
2023/06/08 12:35:10;;;;;;;16.40;15.20;;;28.20;99.90;;;;;;5057951;28;20182;-55
2023/06/08 12:37:36;;;;;;;14.60;13.30;;;28.20;99.90;;;;;;5062446;28;20439;-56